Accueil
METAR-TAF:

METAR-TAF

Aéroports :

Aéroport de Friedrichshafen

Friedrichshafen, Allemagne

latitude: 47-40N, longitude: 009-31E, altitude: 416 m

Observation

Le bulletin a été fait il y a 10 minutes, à 19:20 UTC
Vent 7 kt de nord-est, variant entre nord/nord-ouest et est/nord-est
Température 4°C
Humidité 65%
Pression 1033 hPa
Visibilité 10 km ou plus

METAR: EDNY 271920Z AUTO 04007KT 340V070 9999 // NCD 04/M02 Q1033

Heure: 20:30 (19:30 UTC)

Prévision

Le bulletin a été fait il y a 2 heures et 30 minutes, à 17:00 UTC
Prévision valable du 27 à 18 UTC au 28 à 18 UTC
Vent 15 kt de nord-est
Visibilité 10 km ou plus
Quelques nuages à une hauteur de 3500 ft
Evoluant progressivement
du 27 à 18 UTC au 27 à 20 UTC
Vent 10 kt de nord/nord-est
Temporairement
du 28 à 03 UTC au 28 à 08 UTC
Nuages fragmentés à une hauteur de 800 ft

TAF: EDNY 271700Z 2718/2818 04015KT 9999 FEW035 BECMG 2718/2720 03010KT TEMPO 2803/2808 BKN008

Observations et prévisions météorologiques de plus de 4000 aéroports (messages METAR et TAF).

Les stations disponibles sont représentées par des disques jaunes et rouges sur la carte.

Passer la souris dessus pour voir le nom de la station.

Cliquer dessus pour voir les observations et prévisions météorologiques.

Pour changer de carte: cliquez sur les boutons verts avec une croix noire pour zoomer, sur le bouton vert avec un tiret pour effectuer un zoom arrière, ou sur les flèches vertes pour les cartes adjacentes.


METAR-TAF: